createdAt,value
2023-02-16T00:01:52.956Z,101243.66
2023-02-16T00:04:54.289Z,101240.90
2023-02-16T00:11:35.640Z,101235.08
2023-02-16T00:14:39.769Z,101245.52
2023-02-16T00:17:55.126Z,101247.48
2023-02-16T00:21:05.723Z,101249.46
2023-02-16T00:24:36.400Z,101254.11
2023-02-16T00:27:46.638Z,101258.88
2023-02-16T00:31:01.187Z,101260.42
2023-02-16T00:34:19.636Z,101257.30
2023-02-16T00:37:45.600Z,101246.14
2023-02-16T00:40:34.512Z,101246.31
2023-02-16T00:43:42.522Z,101249.09
2023-02-16T00:46:36.212Z,101250.79
2023-02-16T00:49:42.836Z,101244.63
2023-02-16T00:52:51.414Z,101243.55
2023-02-16T00:55:41.040Z,101241.11
2023-02-16T00:58:32.854Z,101237.69
2023-02-16T01:01:33.092Z,101235.66
2023-02-16T01:04:30.088Z,101238.15
2023-02-16T01:08:04.917Z,101238.32
2023-02-16T01:11:17.219Z,101232.12
2023-02-16T01:14:07.604Z,101230.55
2023-02-16T01:17:12.950Z,101229.70
2023-02-16T01:20:50.169Z,101236.52
2023-02-16T01:24:21.169Z,101239.17
2023-02-16T01:27:39.396Z,101229.70
2023-02-16T01:30:38.334Z,101224.85
2023-02-16T01:33:27.495Z,101220.67
2023-02-16T01:36:45.357Z,101215.94
2023-02-16T01:40:10.646Z,101210.67
2023-02-16T01:43:37.162Z,101210.03
2023-02-16T01:50:28.927Z,101204.15
2023-02-16T02:04:03.785Z,101199.66
2023-02-16T02:06:55.299Z,101193.42
2023-02-16T02:10:12.331Z,101191.56
2023-02-16T02:13:16.569Z,101190.65
2023-02-16T02:16:35.724Z,101188.11
2023-02-16T03:37:43.014Z,101144.08
2023-02-16T03:52:05.142Z,101147.48
2023-02-16T03:55:35.480Z,101140.84
2023-02-16T04:07:16.482Z,101140.29
2023-02-16T04:33:35.531Z,101134.51
2023-02-16T04:49:27.379Z,101119.63
2023-02-16T04:53:13.594Z,101118.67
2023-02-16T04:56:42.796Z,101114.54
2023-02-16T05:00:13.398Z,101112.64
2023-02-16T05:03:24.595Z,101111.05
2023-02-16T05:09:51.410Z,101107.23
2023-02-16T05:17:27.516Z,101107.26
2023-02-16T05:20:54.772Z,101106.73
2023-02-16T05:25:39.436Z,101104.89
2023-02-16T05:27:25.847Z,101105.77
2023-02-16T05:30:48.768Z,101103.27
2023-02-16T05:33:52.283Z,101103.67
2023-02-16T05:36:35.445Z,101104.57
2023-02-16T05:40:07.791Z,101104.29
2023-02-16T05:43:36.158Z,101102.95
2023-02-16T05:46:53.190Z,101101.23
2023-02-16T05:49:47.446Z,101108.81
2023-02-16T05:57:36.409Z,101111.39
2023-02-16T06:00:44.821Z,101114.68
2023-02-16T06:03:55.597Z,101113.95
2023-02-16T06:10:31.027Z,101119.02
2023-02-16T06:13:15.790Z,101119.70
2023-02-16T06:20:07.400Z,101120.55
2023-02-16T06:24:01.087Z,101123.57
2023-02-16T06:28:05.063Z,101121.84
2023-02-16T06:33:48.719Z,101118.81
2023-02-16T06:42:43.030Z,101118.36
2023-02-16T06:53:24.627Z,101116.21
2023-02-16T07:08:59.667Z,101123.02
2023-02-16T07:14:59.624Z,101128.77
2023-02-16T07:17:39.122Z,101132.83
2023-02-16T07:20:50.838Z,101132.26
2023-02-16T07:24:02.715Z,101128.40
2023-02-16T07:46:05.017Z,101129.55
2023-02-16T08:06:49.825Z,101113.72
2023-02-16T08:10:05.385Z,101113.48
2023-02-16T08:13:05.467Z,101110.30
2023-02-16T08:19:18.842Z,101108.84
2023-02-16T08:25:59.462Z,101100.13
2023-02-16T08:29:57.392Z,101104.09
2023-02-16T08:34:00.163Z,101108.02
2023-02-16T08:37:50.640Z,101113.41
2023-02-16T08:41:17.493Z,101103.44
2023-02-16T08:44:30.864Z,101094.33
2023-02-16T08:48:08.948Z,101095.96
2023-02-16T08:51:04.478Z,101097.64
2023-02-16T08:53:46.850Z,101087.45
2023-02-16T08:56:32.868Z,101089.73
2023-02-16T08:59:19.885Z,101086.11
2023-02-16T09:02:06.805Z,101086.33
2023-02-16T09:04:48.783Z,101089.58
2023-02-16T09:07:44.567Z,101087.86
2023-02-16T09:11:24.118Z,101086.42
2023-02-16T09:14:19.291Z,101086.09
2023-02-16T09:17:14.045Z,101087.44
2023-02-16T09:20:09.212Z,101088.30
2023-02-16T09:23:06.972Z,101082.93
2023-02-16T09:26:08.364Z,101082.11
2023-02-16T09:29:19.824Z,101081.27
2023-02-16T09:32:03.671Z,101085.96
2023-02-16T09:35:56.217Z,101087.02
2023-02-16T09:39:20.663Z,101079.14
2023-02-16T09:51:33.782Z,101088.80
2023-02-16T10:40:35.914Z,101090.89
2023-02-16T10:43:31.080Z,101086.73
2023-02-16T10:46:08.288Z,101086.39
2023-02-16T10:49:55.338Z,101090.21
2023-02-16T11:09:17.611Z,101073.21
2023-02-16T11:12:48.848Z,101075.34
2023-02-16T12:39:56.873Z,101022.34
2023-02-16T12:43:09.820Z,101018.71
2023-02-16T12:45:57.008Z,101020.79
2023-02-16T12:48:46.469Z,101019.30
2023-02-16T12:51:46.007Z,101019.89
2023-02-16T12:54:59.721Z,101015.23
2023-02-16T12:57:48.794Z,101013.93
2023-02-16T13:01:18.179Z,101013.78
2023-02-16T13:04:22.005Z,101011.96
2023-02-16T13:07:11.900Z,101009.98
2023-02-16T14:01:44.323Z,100956.23
2023-02-16T14:04:34.572Z,100953.25
2023-02-16T14:10:58.959Z,100950.23
2023-02-16T14:13:43.412Z,100946.92
2023-02-16T14:16:27.420Z,100950.55
2023-02-16T14:19:25.460Z,100946.92
2023-02-16T14:22:13.632Z,100944.69
2023-02-16T14:25:03.541Z,100945.03
2023-02-16T14:28:09.731Z,100947.14
2023-02-16T14:30:56.866Z,100946.49
2023-02-16T14:33:49.060Z,100947.74
2023-02-16T14:36:30.436Z,100947.08
2023-02-16T14:39:03.462Z,100943.64
2023-02-16T14:41:45.037Z,100939.64
2023-02-16T14:44:50.189Z,100937.16
2023-02-16T14:48:02.018Z,100935.92
2023-02-16T14:51:12.814Z,100930.19
2023-02-16T14:54:10.493Z,100929.63
2023-02-16T14:57:11.433Z,100928.90
2023-02-16T15:00:17.303Z,100929.13
2023-02-16T15:03:39.441Z,100925.92
2023-02-16T15:06:31.472Z,100924.63
2023-02-16T15:09:43.643Z,100923.48
2023-02-16T15:12:43.661Z,100918.71
2023-02-16T15:15:58.770Z,100920.81
2023-02-16T15:27:00.127Z,100916.96
2023-02-16T15:30:30.293Z,100914.25
2023-02-16T15:33:59.908Z,100908.06
2023-02-16T15:36:59.750Z,100904.86
2023-02-16T15:40:32.792Z,100902.42
2023-02-16T15:43:50.311Z,100901.68
2023-02-16T15:46:46.333Z,100901.11
2023-02-16T15:49:46.254Z,100900.89
2023-02-16T15:52:43.456Z,100906.73
2023-02-16T15:56:08.910Z,100906.80
2023-02-16T15:59:04.548Z,100905.85
2023-02-16T16:02:06.830Z,100902.80
2023-02-16T16:05:06.991Z,100898.23
2023-02-16T16:08:30.408Z,100896.91
2023-02-16T16:11:19.494Z,100896.92
2023-02-16T16:14:23.476Z,100892.35
2023-02-16T16:17:19.433Z,100896.45
2023-02-16T16:20:03.357Z,100899.63
2023-02-16T16:22:45.421Z,100897.60
2023-02-16T16:25:54.520Z,100901.45
2023-02-16T16:28:40.297Z,100903.94
2023-02-16T16:32:29.089Z,100906.30
2023-02-16T16:36:22.013Z,100913.69
2023-02-16T16:40:13.079Z,100913.02
2023-02-16T16:43:44.521Z,100920.99
2023-02-16T16:46:52.544Z,100925.10
2023-02-16T16:49:49.417Z,100920.69
2023-02-16T16:52:57.755Z,100917.83
2023-02-16T16:56:20.770Z,100915.67
2023-02-16T16:59:26.792Z,100917.80
2023-02-16T17:02:33.784Z,100922.02
2023-02-16T17:05:27.730Z,100920.72
2023-02-16T17:08:15.638Z,100924.08
2023-02-16T17:11:02.682Z,100924.32
2023-02-16T17:14:03.784Z,100927.33
2023-02-16T17:17:48.829Z,100925.52
2023-02-16T17:20:50.060Z,100926.13
2023-02-16T17:23:37.081Z,100929.10
2023-02-16T17:26:28.956Z,100928.61
2023-02-16T17:29:24.784Z,100924.32
2023-02-16T17:32:18.789Z,100924.88
2023-02-16T17:35:23.069Z,100927.16
2023-02-16T17:38:34.535Z,100928.39
2023-02-16T17:42:06.060Z,100932.23
2023-02-16T17:45:20.897Z,100930.20
2023-02-16T17:48:09.535Z,100929.73
2023-02-16T17:51:21.853Z,100927.53
2023-02-16T17:57:30.637Z,100924.80
2023-02-16T18:00:32.722Z,100928.62
2023-02-16T18:03:22.095Z,100924.52
2023-02-16T18:06:28.175Z,100922.48
2023-02-16T18:14:00.817Z,100930.46
2023-02-16T18:17:07.379Z,100931.00
2023-02-16T18:20:24.861Z,100923.76
2023-02-16T18:26:53.500Z,100922.39
2023-02-16T18:30:23.475Z,100926.54
2023-02-16T18:33:32.803Z,100928.10
2023-02-16T18:36:50.005Z,100926.90
2023-02-16T18:39:49.360Z,100922.11
2023-02-16T18:46:12.945Z,100918.33
2023-02-16T18:48:51.968Z,100920.91
2023-02-16T18:51:45.333Z,100921.44
2023-02-16T18:54:24.684Z,100919.19
2023-02-16T18:57:13.073Z,100921.43
2023-02-16T19:00:49.113Z,100923.67
2023-02-16T19:03:32.653Z,100921.77
2023-02-16T19:07:06.306Z,100917.45
2023-02-16T19:09:56.016Z,100916.41
2023-02-16T19:12:47.934Z,100918.82
2023-02-16T19:15:41.754Z,100918.83
2023-02-16T19:18:39.354Z,100920.36
2023-02-16T19:21:35.541Z,100915.17
2023-02-16T19:24:41.845Z,100916.20
2023-02-16T19:27:44.033Z,100916.89
2023-02-16T19:30:33.995Z,100917.38
2023-02-16T19:44:46.798Z,100909.45
2023-02-16T19:47:44.712Z,100905.31
2023-02-16T20:17:06.885Z,100895.27
2023-02-16T20:20:13.264Z,100891.83
2023-02-16T20:23:05.839Z,100894.77
2023-02-16T20:26:08.176Z,100895.80
2023-02-16T20:29:05.875Z,100893.55
2023-02-16T20:32:09.697Z,100896.46
2023-02-16T20:35:30.930Z,100899.90
2023-02-16T20:39:09.049Z,100901.94
2023-02-16T20:42:02.099Z,100903.63
2023-02-16T20:48:44.650Z,100908.73
2023-02-16T20:52:27.637Z,100909.93
2023-02-16T20:55:39.670Z,100906.48
2023-02-16T20:58:54.931Z,100905.78
2023-02-16T21:01:41.191Z,100904.23
2023-02-16T21:48:52.901Z,100893.88
2023-02-16T21:51:34.391Z,100895.95
2023-02-16T21:57:46.233Z,100895.91
2023-02-16T22:00:33.551Z,100896.77
2023-02-16T22:03:21.295Z,100894.86
2023-02-16T22:06:45.473Z,100895.02
2023-02-16T22:09:47.011Z,100896.06
2023-02-16T22:12:21.429Z,100889.16
2023-02-16T22:15:01.405Z,100882.05
2023-02-16T22:17:41.219Z,100882.90
2023-02-16T22:20:13.398Z,100878.05
2023-02-16T22:22:50.052Z,100875.66
2023-02-16T22:25:35.033Z,100874.11
2023-02-16T22:28:55.956Z,100872.91
2023-02-16T22:31:49.469Z,100868.77
2023-02-16T22:34:35.105Z,100867.23
2023-02-16T22:37:25.020Z,100867.73
2023-02-16T22:43:15.282Z,100863.81
2023-02-16T22:46:38.069Z,100871.59
2023-02-16T22:49:21.860Z,100867.68
2023-02-16T22:52:11.730Z,100864.45
2023-02-16T22:54:46.916Z,100864.46
2023-02-16T22:57:43.959Z,100863.09
2023-02-16T23:00:43.014Z,100858.13
2023-02-16T23:03:42.971Z,100851.75
2023-02-16T23:06:31.444Z,100853.48
2023-02-16T23:09:20.559Z,100857.81
2023-02-16T23:12:12.744Z,100857.96
2023-02-16T23:15:04.006Z,100852.30
2023-02-16T23:17:36.416Z,100853.69
2023-02-16T23:20:14.385Z,100850.23
2023-02-16T23:22:58.789Z,100844.89
2023-02-16T23:25:40.260Z,100841.11
2023-02-16T23:28:26.232Z,100838.66
2023-02-16T23:31:09.201Z,100839.34
2023-02-16T23:33:57.027Z,100835.18
2023-02-16T23:36:28.034Z,100831.21
2023-02-16T23:39:08.388Z,100832.05
2023-02-16T23:42:10.865Z,100829.64
2023-02-16T23:45:01.423Z,100830.51
2023-02-16T23:48:46.550Z,100827.91
2023-02-16T23:51:02.447Z,100826.70
2023-02-16T23:53:53.549Z,100827.74
2023-02-16T23:57:12.291Z,100828.92
